Aérodrome :
LOGIN :

S'inscrire | Disclaimer

   EN    FR    IT 

 










Légende :    VFR   VFR Marginal   IFR   IFR Intensif   IFR Très Intensif
Visi : 
Plafond : 
>= 8 km
>= 3000ft
5 à 8 km
1000 à 3000 ft
1500m à 5 km
500 à 1000 ft
800 à 1500m
200 à 500 ft
< 800m
< 200 ft
Symboles :   Orages  Brouillard  Fortes neiges  Fortes précipitations  Vent > 20 kt
SIGMETs :   Divers  Orages  Givrage  Turbulence  Onde Orograph.  Cendres Volcan.







- Altitude de l'aérodrome : 219 ft
- Code IATA : DNR
- Voir les cartes d'approche


LFRD - Dinard

DERNIER METAR :
  • 231600Z AUTO 29019KT 9999 BKN032 10/04 Q1009 BECMG 28020G30KT

METARs EXPIRÉS :
  • 231530Z AUTO 29018KT 9999 BKN030 BKN035 10/04 Q1008 BECMG 28020G30KT
  • 231500Z AUTO 29020G31KT 9999 SCT032 11/04 Q1008 NOSIG
  • 231430Z AUTO 29019KT 260V330 9999 BKN033 11/04 Q1008 BECMG 28020G30KT
  • 231400Z AUTO 29020KT 9999 BKN033 BKN042 11/04 Q1008 BECMG 28020G30KT
  • 231330Z AUTO 30018KT 9999 BKN036 11/04 Q1008 BECMG 28020G30KT
  • 231300Z AUTO 29020KT 9999 BKN034 BKN056 12/05 Q1008 BECMG 28020G30KT

TAF TAF LFRD
Valide du 23 à 12h jusqu'au 24 à 12h UTC


231100Z 2312/2412 28020G30KT 9999 BKN025
PROB30
TEMPO 2321/2403 5000 SHRA
BECMG 2400/2402 32012KT
ATIS : +33 2 99 16 81 50
Pas de NOTAMs connus pour ce terrain.
2 SIGMETs publiés pour la FIR Brest (LFRR) :
 
Turbulence forte
LFRR SIGMET 4 VALID 231600/232000 LFPW
LFRR BREST FIR/UIR SEV TURB FCST WI N4945 W00245 - N5000 W00200 - N5000 W00015 - N4830 W00015 SFC/FL050 MOV NE 25KT WKN=
Turbulence forte
LFRR SIGMET 3 VALID 231300/231600 LFPW
LFRR BREST FIR/UIR SEV TURB FCST WI N4930 W00445 - N5000 W00200 - N5000 W00015 - N4815 W00015 SFC/FL050 MOV NE 20KT NC=



MET'MAP, la Météo Aéronautique d'un coup d'oeil ! - Copyright ORBIFLY Décembre 2007 - Disclaimer

ORBIFLY MET'MAP TEAM :

Programmation & Développement : Alexandra Zaïnal
Conception & Développement : Baudouin d'Aumeries
Co-Programmation & Développement : Marc-Olivier Méhu
Soutien technique & logistique : Manuel Goepfert

Contact : metmap@orbifly.com




SOURCES & CREDITS :

   NOAA